createdAt,value
2022-11-03T00:02:41.378Z,97.98
2022-11-03T00:06:03.614Z,98.27
2022-11-03T00:09:08.541Z,97.84
2022-11-03T00:12:11.832Z,98.42
2022-11-03T00:15:14.551Z,97.78
2022-11-03T00:18:17.763Z,98.02
2022-11-03T00:21:22.685Z,97.92
2022-11-03T00:24:25.389Z,98.14
2022-11-03T00:27:28.423Z,98.28
2022-11-03T00:30:31.152Z,98.83
2022-11-03T00:33:34.672Z,99.39
2022-11-03T00:36:40.786Z,100.00
2022-11-03T00:39:43.517Z,99.72
2022-11-03T00:42:46.625Z,99.66
2022-11-03T00:45:49.350Z,99.69
2022-11-03T00:48:53.067Z,99.95
2022-11-03T00:51:57.462Z,99.69
2022-11-03T00:55:00.238Z,99.91
2022-11-03T00:58:03.574Z,99.60
2022-11-03T01:01:08.857Z,99.91
2022-11-03T01:04:29.309Z,99.44
2022-11-03T01:07:33.889Z,99.81
2022-11-03T01:11:00.225Z,99.71
2022-11-03T01:14:04.068Z,99.61
2022-11-03T01:17:07.357Z,99.96
2022-11-03T01:20:10.709Z,99.81
2022-11-03T01:23:15.630Z,99.97
2022-11-03T01:26:19.235Z,100.00
2022-11-03T01:29:22.022Z,99.72
2022-11-03T01:32:24.710Z,100.00
2022-11-03T01:35:27.862Z,99.95
2022-11-03T01:38:34.965Z,99.75
2022-11-03T01:41:39.035Z,99.89
2022-11-03T01:44:47.393Z,100.00
2022-11-03T01:47:50.645Z,100.00
2022-11-03T01:50:53.968Z,100.00
2022-11-03T01:54:00.502Z,100.00
2022-11-03T01:57:07.868Z,100.00
2022-11-03T02:00:11.746Z,100.00
2022-11-03T02:03:16.124Z,100.00
2022-11-03T02:06:20.602Z,100.00
2022-11-03T02:09:25.390Z,100.00
2022-11-03T02:12:28.499Z,100.00
2022-11-03T02:15:33.248Z,100.00
2022-11-03T02:18:36.247Z,100.00
2022-11-03T02:21:50.379Z,100.00
2022-11-03T02:25:00.892Z,100.00
2022-11-03T02:28:07.467Z,100.00
2022-11-03T02:31:17.424Z,100.00
2022-11-03T02:34:28.278Z,100.00
2022-11-03T02:37:36.193Z,100.00
2022-11-03T02:40:45.868Z,100.00
2022-11-03T02:43:50.710Z,100.00
2022-11-03T02:47:01.912Z,100.00
2022-11-03T02:50:10.317Z,100.00
2022-11-03T02:53:14.487Z,100.00
2022-11-03T02:56:21.119Z,100.00
2022-11-03T02:59:28.145Z,100.00
2022-11-03T03:02:37.208Z,100.00
2022-11-03T03:05:42.037Z,100.00
2022-11-03T03:08:48.806Z,100.00
2022-11-03T03:11:54.748Z,100.00
2022-11-03T03:15:00.589Z,100.00
2022-11-03T03:18:13.794Z,100.00
2022-11-03T03:21:20.471Z,100.00
2022-11-03T03:24:32.450Z,100.00
2022-11-03T03:27:37.978Z,100.00
2022-11-03T03:30:43.571Z,100.00
2022-11-03T03:33:48.556Z,100.00
2022-11-03T03:36:52.503Z,100.00
2022-11-03T03:40:01.119Z,100.00
2022-11-03T03:43:07.769Z,100.00
2022-11-03T03:46:13.859Z,100.00
2022-11-03T03:49:16.627Z,100.00
2022-11-03T03:52:20.320Z,100.00
2022-11-03T03:55:28.672Z,100.00
2022-11-03T03:58:31.387Z,100.00
2022-11-03T04:01:36.114Z,100.00
2022-11-03T04:04:39.715Z,100.00
2022-11-03T04:07:48.470Z,100.00
2022-11-03T04:11:05.088Z,100.00
2022-11-03T04:14:25.504Z,100.00
2022-11-03T04:21:08.551Z,100.00
2022-11-03T04:24:11.555Z,100.00
2022-11-03T04:27:27.881Z,100.00
2022-11-03T04:30:30.810Z,100.00
2022-11-03T04:33:35.282Z,100.00
2022-11-03T04:36:38.000Z,100.00
2022-11-03T04:39:41.496Z,100.00
2022-11-03T04:42:44.831Z,100.00
2022-11-03T04:45:49.282Z,100.00
2022-11-03T04:48:53.937Z,100.00
2022-11-03T04:51:56.959Z,100.00
2022-11-03T04:54:59.683Z,100.00
2022-11-03T04:58:12.105Z,100.00
2022-11-03T05:01:22.463Z,100.00
2022-11-03T05:04:27.974Z,100.00
2022-11-03T05:07:35.620Z,100.00
2022-11-03T05:10:38.663Z,100.00
2022-11-03T05:13:42.077Z,100.00
2022-11-03T05:16:45.947Z,100.00
2022-11-03T05:19:51.373Z,100.00
2022-11-03T05:22:54.457Z,100.00
2022-11-03T05:25:59.786Z,100.00
2022-11-03T05:29:04.614Z,100.00
2022-11-03T05:32:13.086Z,100.00
2022-11-03T05:35:22.256Z,100.00
2022-11-03T05:38:25.017Z,100.00
2022-11-03T05:41:30.450Z,100.00
2022-11-03T05:44:36.819Z,100.00
2022-11-03T05:47:41.247Z,100.00
2022-11-03T05:50:45.575Z,100.00
2022-11-03T05:53:50.963Z,100.00
2022-11-03T05:56:55.033Z,100.00
2022-11-03T05:59:58.286Z,100.00
2022-11-03T06:03:01.941Z,100.00
2022-11-03T06:06:16.665Z,100.00
2022-11-03T06:09:22.654Z,100.00
2022-11-03T06:12:27.159Z,100.00
2022-11-03T06:15:32.327Z,100.00
2022-11-03T06:18:37.327Z,100.00
2022-11-03T06:21:44.536Z,100.00
2022-11-03T06:24:48.331Z,100.00
2022-11-03T06:27:52.373Z,100.00
2022-11-03T06:30:55.119Z,100.00
2022-11-03T06:33:58.687Z,100.00
2022-11-03T06:37:14.625Z,100.00
2022-11-03T06:40:36.026Z,100.00
2022-11-03T06:43:42.194Z,100.00
2022-11-03T06:46:45.101Z,100.00
2022-11-03T06:49:48.935Z,100.00
2022-11-03T06:52:55.612Z,100.00
2022-11-03T06:55:58.984Z,100.00
2022-11-03T06:59:02.072Z,100.00
2022-11-03T07:02:18.879Z,100.00
2022-11-03T07:05:24.642Z,100.00
2022-11-03T07:08:32.553Z,100.00
2022-11-03T07:11:46.193Z,100.00
2022-11-03T07:14:48.902Z,100.00
2022-11-03T07:17:52.265Z,100.00
2022-11-03T07:20:56.894Z,99.30
2022-11-03T07:24:04.334Z,99.55
2022-11-03T07:27:16.510Z,98.69
2022-11-03T07:30:21.601Z,99.08
2022-11-03T07:33:27.760Z,99.35
2022-11-03T07:36:33.251Z,100.00
2022-11-03T07:39:39.430Z,100.00
2022-11-03T07:42:42.437Z,100.00
2022-11-03T07:45:49.077Z,99.28
2022-11-03T07:48:54.482Z,100.00
2022-11-03T07:51:58.401Z,100.00
2022-11-03T07:55:02.503Z,99.73
2022-11-03T07:58:26.502Z,98.85
2022-11-03T08:01:32.614Z,97.95
2022-11-03T08:04:36.550Z,98.68
2022-11-03T08:07:39.396Z,98.33
2022-11-03T08:10:43.414Z,99.06
2022-11-03T08:13:46.066Z,99.86
2022-11-03T08:16:48.936Z,99.35
2022-11-03T08:19:51.787Z,98.90
2022-11-03T08:23:19.726Z,98.32
2022-11-03T08:26:18.545Z,98.31
2022-11-03T08:29:21.523Z,98.73
2022-11-03T08:32:24.332Z,97.72
2022-11-03T08:35:30.080Z,97.83
2022-11-03T08:38:36.040Z,97.95
2022-11-03T08:41:40.302Z,98.81
2022-11-03T08:44:42.999Z,98.59
2022-11-03T08:47:46.489Z,99.01
2022-11-03T08:50:50.425Z,96.53
2022-11-03T08:53:54.115Z,97.14
2022-11-03T08:56:58.243Z,97.59
2022-11-03T09:00:00.944Z,97.89
2022-11-03T09:03:03.770Z,98.16
2022-11-03T09:06:07.017Z,99.32
2022-11-03T09:12:33.757Z,98.58
2022-11-03T09:15:36.512Z,97.91
2022-11-03T09:18:39.246Z,98.60
2022-11-03T09:21:42.669Z,98.65
2022-11-03T09:24:45.406Z,98.47
2022-11-03T09:27:49.460Z,98.19
2022-11-03T09:30:52.144Z,97.67
2022-11-03T09:33:55.343Z,97.88
2022-11-03T09:36:59.302Z,98.07
2022-11-03T09:40:02.213Z,97.86
2022-11-03T09:43:06.618Z,96.47
2022-11-03T09:46:09.610Z,96.83
2022-11-03T09:49:15.816Z,96.58
2022-11-03T09:52:22.534Z,95.79
2022-11-03T09:55:27.260Z,95.86
2022-11-03T09:58:32.949Z,95.91
2022-11-03T10:01:35.883Z,96.65
2022-11-03T10:04:38.699Z,95.89
2022-11-03T10:07:43.546Z,96.03
2022-11-03T10:10:46.303Z,95.83
2022-11-03T10:13:54.627Z,96.41
2022-11-03T10:17:00.310Z,96.11
2022-11-03T10:20:07.176Z,95.85
2022-11-03T10:23:10.026Z,94.51
2022-11-03T10:26:16.391Z,94.07
2022-11-03T10:29:23.748Z,94.27
2022-11-03T10:32:34.492Z,93.96
2022-11-03T10:35:37.565Z,93.98
2022-11-03T10:38:40.266Z,93.95
2022-11-03T10:41:57.541Z,93.86
2022-11-03T10:45:15.681Z,93.99
2022-11-03T10:48:18.424Z,94.03
2022-11-03T10:51:21.128Z,93.38
2022-11-03T10:54:26.167Z,92.88
2022-11-03T10:57:29.601Z,93.24
2022-11-03T11:00:34.366Z,93.90
2022-11-03T11:03:42.696Z,92.97
2022-11-03T11:06:46.159Z,92.49
2022-11-03T11:09:49.524Z,93.01
2022-11-03T11:13:25.955Z,92.60
2022-11-03T11:16:51.780Z,92.64
2022-11-03T11:20:43.369Z,92.85
2022-11-03T11:23:47.196Z,92.47
2022-11-03T11:26:50.794Z,93.07
2022-11-03T11:29:53.549Z,91.75
2022-11-03T11:33:02.207Z,91.91
2022-11-03T11:36:20.189Z,91.86
2022-11-03T11:39:44.712Z,91.32
2022-11-03T11:43:24.650Z,91.65
2022-11-03T11:46:41.187Z,92.14
2022-11-03T11:49:45.378Z,92.15
2022-11-03T11:52:51.990Z,92.70
2022-11-03T11:55:57.805Z,92.68
2022-11-03T11:59:00.614Z,93.25
2022-11-03T12:02:04.689Z,92.07
2022-11-03T12:05:20.823Z,91.25
2022-11-03T12:08:29.828Z,90.08
2022-11-03T12:11:45.823Z,91.14
2022-11-03T12:14:49.641Z,90.95
2022-11-03T12:17:52.490Z,90.83
2022-11-03T12:20:56.880Z,90.83
2022-11-03T12:23:59.581Z,91.35
2022-11-03T12:27:03.113Z,91.17
2022-11-03T12:30:12.522Z,90.89
2022-11-03T12:33:15.168Z,91.58
2022-11-03T12:36:19.256Z,91.27
2022-11-03T12:39:21.928Z,91.70
2022-11-03T12:42:25.286Z,91.34
2022-11-03T12:45:28.259Z,91.22
2022-11-03T12:48:30.930Z,91.47
2022-11-03T12:51:35.078Z,91.83
2022-11-03T12:54:37.840Z,92.12
2022-11-03T12:57:40.523Z,92.97
2022-11-03T13:00:48.082Z,93.61
2022-11-03T13:03:56.683Z,94.23
2022-11-03T13:07:00.821Z,93.39
2022-11-03T13:10:05.049Z,93.72
2022-11-03T13:13:08.182Z,94.55
2022-11-03T13:16:11.394Z,94.59
2022-11-03T13:19:14.144Z,94.53
2022-11-03T13:22:18.187Z,93.93
2022-11-03T13:25:21.342Z,94.21
2022-11-03T13:28:24.079Z,94.08
2022-11-03T13:31:27.478Z,94.52
2022-11-03T13:34:30.777Z,94.11
2022-11-03T13:37:34.832Z,93.51
2022-11-03T13:44:00.561Z,93.35
2022-11-03T13:47:05.503Z,93.04
2022-11-03T13:50:14.502Z,93.84
2022-11-03T14:00:06.014Z,93.91
2022-11-03T14:06:31.841Z,96.06
2022-11-03T14:12:39.804Z,94.98
2022-11-03T14:15:42.811Z,94.33
2022-11-03T14:18:45.490Z,95.25
2022-11-03T14:21:48.259Z,94.59
2022-11-03T14:24:53.607Z,94.31
2022-11-03T14:27:56.294Z,94.92
2022-11-03T14:31:02.065Z,95.44
2022-11-03T14:34:05.122Z,94.95
2022-11-03T14:37:09.108Z,95.67
2022-11-03T14:40:34.277Z,95.53
2022-11-03T14:43:36.021Z,95.12
2022-11-03T14:46:38.818Z,95.40
2022-11-03T14:49:41.843Z,96.43
2022-11-03T14:52:44.605Z,96.14
2022-11-03T14:55:48.681Z,96.27
2022-11-03T14:58:51.560Z,96.69
2022-11-03T15:01:55.504Z,96.37
2022-11-03T15:04:58.529Z,96.51
2022-11-03T15:08:01.337Z,96.70
2022-11-03T15:11:08.139Z,97.29
2022-11-03T15:14:11.702Z,96.14
2022-11-03T15:17:14.407Z,96.71
2022-11-03T15:20:17.362Z,96.34
2022-11-03T15:26:44.488Z,97.28
2022-11-03T15:29:47.184Z,97.83
2022-11-03T15:32:50.157Z,97.54
2022-11-03T15:35:52.997Z,97.76
2022-11-03T15:38:55.883Z,98.42
2022-11-03T15:42:00.410Z,99.09
2022-11-03T15:45:03.702Z,99.00
2022-11-03T15:48:06.978Z,98.66
2022-11-03T15:51:10.354Z,98.52
2022-11-03T15:54:13.030Z,98.03
2022-11-03T15:57:17.083Z,98.67
2022-11-03T16:00:20.544Z,99.68
2022-11-03T16:03:23.468Z,99.53
2022-11-03T16:06:46.714Z,99.73
2022-11-03T16:09:49.364Z,99.77
2022-11-03T16:12:53.525Z,98.81
2022-11-03T16:15:56.206Z,98.85
2022-11-03T16:18:58.937Z,98.41
2022-11-03T16:22:01.945Z,98.61
2022-11-03T16:25:07.477Z,98.80
2022-11-03T16:28:16.060Z,98.98
2022-11-03T16:31:18.885Z,99.69
2022-11-03T16:34:21.963Z,100.00
2022-11-03T16:37:27.457Z,100.00
2022-11-03T16:40:30.166Z,100.00
2022-11-03T16:43:34.235Z,100.00
2022-11-03T16:46:36.959Z,100.00
2022-11-03T16:49:41.801Z,100.00
2022-11-03T16:52:44.994Z,100.00
2022-11-03T16:55:49.501Z,100.00
2022-11-03T16:58:53.746Z,100.00
2022-11-03T17:01:56.945Z,100.00
2022-11-03T17:04:59.776Z,100.00
2022-11-03T17:08:03.233Z,100.00
2022-11-03T17:11:06.160Z,100.00
2022-11-03T17:14:13.735Z,100.00
2022-11-03T17:17:16.656Z,100.00
2022-11-03T17:20:19.377Z,100.00
2022-11-03T17:23:22.080Z,100.00
2022-11-03T17:26:29.711Z,100.00
2022-11-03T17:29:36.719Z,100.00
2022-11-03T17:32:42.146Z,100.00
2022-11-03T17:35:46.670Z,100.00
2022-11-03T17:38:49.412Z,100.00
2022-11-03T17:41:52.191Z,100.00
2022-11-03T17:44:57.812Z,100.00
2022-11-03T17:48:00.579Z,100.00
2022-11-03T17:51:07.685Z,100.00
2022-11-03T17:54:16.819Z,100.00
2022-11-03T17:57:22.322Z,100.00
2022-11-03T18:00:26.461Z,100.00
2022-11-03T18:03:29.457Z,100.00
2022-11-03T18:06:32.190Z,100.00
2022-11-03T18:09:35.101Z,100.00
2022-11-03T18:12:58.347Z,100.00
2022-11-03T18:16:07.177Z,100.00
2022-11-03T18:19:12.819Z,100.00
2022-11-03T18:22:15.640Z,100.00
2022-11-03T18:25:21.221Z,100.00
2022-11-03T18:28:24.538Z,100.00
2022-11-03T18:31:36.203Z,100.00
2022-11-03T18:34:39.034Z,100.00
2022-11-03T18:37:44.124Z,100.00
2022-11-03T18:40:47.426Z,100.00
2022-11-03T18:43:50.398Z,100.00
2022-11-03T18:46:55.599Z,100.00
2022-11-03T18:49:58.534Z,100.00
2022-11-03T18:53:01.314Z,100.00
2022-11-03T18:56:04.476Z,100.00
2022-11-03T18:59:07.696Z,100.00
2022-11-03T19:02:18.824Z,100.00
2022-11-03T19:05:21.645Z,100.00
2022-11-03T19:08:28.035Z,100.00
2022-11-03T19:11:30.835Z,100.00
2022-11-03T19:14:36.878Z,100.00
2022-11-03T19:17:40.963Z,100.00
2022-11-03T19:20:43.671Z,100.00
2022-11-03T19:23:48.137Z,100.00
2022-11-03T19:26:58.117Z,100.00
2022-11-03T19:30:02.233Z,100.00
2022-11-03T19:33:07.456Z,100.00
2022-11-03T19:36:10.799Z,100.00
2022-11-03T19:39:18.591Z,100.00
2022-11-03T19:42:31.287Z,100.00
2022-11-03T19:45:34.112Z,100.00
2022-11-03T19:48:38.870Z,100.00
2022-11-03T19:51:42.087Z,100.00
2022-11-03T19:54:47.734Z,100.00
2022-11-03T19:57:50.429Z,100.00
2022-11-03T20:00:54.306Z,100.00
2022-11-03T20:03:58.389Z,100.00
2022-11-03T20:07:02.772Z,100.00
2022-11-03T20:10:06.458Z,100.00
2022-11-03T20:13:10.726Z,100.00
2022-11-03T20:16:14.960Z,100.00
2022-11-03T20:19:19.082Z,100.00
2022-11-03T20:22:28.649Z,100.00
2022-11-03T20:25:35.328Z,100.00
2022-11-03T20:28:39.121Z,100.00
2022-11-03T20:31:42.155Z,100.00
2022-11-03T20:34:46.954Z,100.00
2022-11-03T20:37:51.807Z,100.00
2022-11-03T20:40:58.880Z,100.00
2022-11-03T20:44:02.170Z,100.00
2022-11-03T20:47:05.232Z,100.00
2022-11-03T20:50:10.510Z,100.00
2022-11-03T20:53:16.721Z,100.00
2022-11-03T20:56:20.978Z,100.00
2022-11-03T20:59:24.720Z,100.00
2022-11-03T21:02:28.326Z,100.00
2022-11-03T21:05:32.475Z,100.00
2022-11-03T21:08:35.612Z,100.00
2022-11-03T21:11:40.485Z,100.00
2022-11-03T21:15:05.213Z,100.00
2022-11-03T21:18:27.796Z,100.00
2022-11-03T21:21:31.796Z,100.00
2022-11-03T21:24:34.468Z,100.00
2022-11-03T21:27:39.300Z,100.00
2022-11-03T21:30:45.215Z,100.00
2022-11-03T21:33:47.911Z,100.00
2022-11-03T21:36:51.910Z,100.00
2022-11-03T21:39:54.701Z,100.00
2022-11-03T21:43:14.921Z,100.00
2022-11-03T21:46:17.762Z,100.00
2022-11-03T21:49:38.321Z,100.00
2022-11-03T21:52:42.502Z,100.00
2022-11-03T21:55:48.468Z,100.00
2022-11-03T21:58:51.162Z,100.00
2022-11-03T22:01:55.096Z,100.00
2022-11-03T22:04:58.726Z,100.00
2022-11-03T22:08:03.249Z,100.00
2022-11-03T22:11:22.454Z,100.00
2022-11-03T22:14:26.663Z,100.00
2022-11-03T22:17:28.646Z,100.00
2022-11-03T22:20:48.706Z,100.00
2022-11-03T22:24:10.223Z,100.00
2022-11-03T22:27:13.481Z,100.00
2022-11-03T22:30:33.644Z,100.00
2022-11-03T22:33:56.812Z,100.00
2022-11-03T22:36:58.622Z,100.00
2022-11-03T22:40:20.573Z,100.00
2022-11-03T22:43:41.278Z,100.00
2022-11-03T22:46:44.571Z,100.00
2022-11-03T22:49:47.870Z,100.00
2022-11-03T22:52:50.856Z,100.00
2022-11-03T22:55:54.319Z,100.00
2022-11-03T22:58:57.301Z,100.00
2022-11-03T23:02:00.029Z,100.00
2022-11-03T23:05:04.787Z,100.00
2022-11-03T23:08:07.632Z,100.00
2022-11-03T23:11:16.322Z,100.00
2022-11-03T23:14:20.864Z,100.00
2022-11-03T23:17:44.195Z,100.00
2022-11-03T23:21:05.193Z,100.00
2022-11-03T23:24:26.129Z,100.00
2022-11-03T23:27:30.446Z,100.00
2022-11-03T23:30:33.116Z,100.00
2022-11-03T23:33:36.844Z,100.00
2022-11-03T23:36:39.949Z,100.00
2022-11-03T23:39:42.644Z,100.00
2022-11-03T23:42:46.747Z,100.00
2022-11-03T23:46:12.115Z,100.00
2022-11-03T23:49:15.559Z,100.00
2022-11-03T23:52:18.276Z,100.00
2022-11-03T23:55:21.204Z,100.00
2022-11-03T23:58:24.266Z,100.00
